Other Surface Observations
Issued by NWS Great Falls, MT

Home | Current Version | Previous Version | Text Only | Print | Product List | Glossary On
Versions: 1 2 3 4 5 6 7 8 9 10 11 12 13 14 15 16 17 18 19 20 21 22 23 24 25 26 27 28 29 30 31 32 33 34 35 36 37 38 39 40 41 42 43 44 45 46 47 48 49 50
000
SXUS55 KTFX 060609
OSOTFX
AREA AWOS OBSERVATIONS
NATIONAL WEATHER SERVICE GREAT FALLS MT
1105 PM MST THU MAR 05 2015

METAR KPWD 060600Z AUTO 35007KT 10SM M04/M09 A3003 RMK PLENTYWOOD
METAR KPO1 060615Z AUTO 24004KT M01/M07 A3007 RMK POPLAR
METAR K1S3 060615Z AUTO 25004KT 10SM 03/M09 A3011 RMK FORSYTH
METAR KS71 060615Z AUTO 00000KT 10SM M03/M07 A3009 RMK CHINOOK
METAR K6S0 060615Z AUTO 25033G39KT 10SM 06/M12 A3010 RMK BIG TIMBER
METAR K79S 060615Z AUTO 20007KT 10SM 03/M08 A3013 RMK FORT BENTON
METAR K38S 060615Z AUTO 00000KT 10SM 00/M10 A3031 RMK DEER LODGE
METAR K3U3 060615Z AUTO 21003KT 10SM 03/M11 A3028 RMK ANACONDA
METAR K6S5 060615Z AUTO 20002KT 10SM 02/M08 A3031 RMK HAMILTON
METAR KS59 060615Z AUTO 14003KT 10SM M03/M07 A3031 RMK LIBBY
METAR K88M 060615Z AUTO 00000KT 10SM M04/M08 A3030 RMK EUREKA



USA.gov is the U.S. government's official web portal to all federal, state and local government web resources and services.